Bean Blossom, Indiana
Current Conditions -  °F | °C
As of 2:55 PM on Thursday 30 Oct 2014 (Local Time) from K1II Reporting Station
Clear Clear  
Wind Chill: 52°   Ceiling: Unl
Heat Index: 52°   Visibility: 10mi
Dew Point: 34°   Wind: 5mph
Humidity: 50%   Direction: 140°SE
Pressure: 30.1"   Gusts: NA
Location:  39.341°N, 86.3076°W
Report Text: K1II 301855Z AUTO 14004KT 10SM CLR 11/01 A3010 RMK AO2
Loading
Personal Weather Stations






























Interactive Weather Map
Tropical Storm Tracking
New forecast layout! Learn more

10-Day Weather Forecast

Advertisements
Track Severe Weather on mobile